Time;durP1;ratioP1;P1;durP2;ratioP2;P2;SDS_P1;SDS_P2;PMS_P1;PMS_P2;Temp;Humidity;BMP_temperature;BMP_pressure;BME280_temperature;BME280_humidity;BME280_pressure;Samples;Min_cycle;Max_cycle;Signal;HPM_P1;HPM_P2
2022/06/16 00:00:46;;;;;;;;;;;;;;;26.62;39.07;101215.00;5058136;28;1894;-39
2022/06/16 00:03:12;;;;;;;;;;;;;;;26.65;39.53;101207.44;5058473;28;986;-39
2022/06/16 00:05:38;;;;;;;;;;;;;;;26.65;39.39;101209.28;5039338;28;1152;-39
2022/06/16 00:08:04;;;;;;;;;;;;;;;26.65;39.50;101212.81;5053203;28;1076;-39
2022/06/16 00:10:29;;;;;;;;;;;;;;;26.69;40.04;101212.50;5054659;28;1172;-39
2022/06/16 00:12:54;;;;;;;;;;;;;;;26.67;39.35;101215.34;5057910;28;1147;-39
2022/06/16 00:15:21;;;;;;;;;;;;;;;26.69;39.19;101210.63;5052820;28;1076;-39
2022/06/16 00:17:46;;;;;;;;;;;;;;;26.71;39.67;101211.28;5052861;28;1072;-39
2022/06/16 00:20:11;;;;;;;;;;;;;;;26.71;39.78;101208.59;5053530;28;1894;-39
2022/06/16 00:22:37;;;;;;;;;;;;;;;26.74;39.47;101207.44;5054646;28;997;-39
2022/06/16 00:25:02;;;;;;;;;;;;;;;26.74;39.60;101210.94;5056140;28;1163;-39
2022/06/16 00:27:28;;;;;;;;;;;;;;;26.79;39.57;101202.38;5058054;28;1021;-39
2022/06/16 00:29:53;;;;;;;;;;;;;;;26.79;39.28;101205.06;5055988;28;1183;-39
2022/06/16 00:32:18;;;;;;;;;;;;;;;26.79;40.07;101199.66;5058127;28;1072;-39
2022/06/16 00:34:43;;;;;;;;;;;;;;;26.80;40.05;101198.66;5053231;28;993;-39
2022/06/16 00:37:09;;;;;;;;;;;;;;;26.83;39.77;101194.75;5051653;28;890;-39
2022/06/16 00:39:34;;;;;;;;;;;;;;;26.82;40.04;101195.78;5051607;28;1957;-38
2022/06/16 00:42:15;;;;;;;;;;;;;;;26.81;40.19;101191.41;5050563;28;974;-39
2022/06/16 00:44:45;;;;;;;;;;;;;;;26.83;40.10;101190.19;5052381;28;1006;-39
2022/06/16 00:47:10;;;;;;;;;;;;;;;26.87;40.02;101193.41;5053831;28;1246;-38
2022/06/16 00:49:36;;;;;;;;;;;;;;;26.90;39.88;101187.66;5055929;28;985;-39
2022/06/16 00:52:02;;;;;;;;;;;;;;;26.93;39.75;101191.88;5036573;28;1152;-39
2022/06/16 00:54:27;;;;;;;;;;;;;;;26.97;40.21;101194.06;5056791;28;1002;-39
2022/06/16 00:56:53;;;;;;;;;;;;;;;26.94;39.94;101189.03;5050940;28;934;-39
2022/06/16 00:59:19;;;;;;;;;;;;;;;26.96;40.16;101192.38;5052859;28;1894;-38
2022/06/16 01:01:45;;;;;;;;;;;;;;;26.95;39.76;101188.00;5039084;28;986;-39
2022/06/16 01:06:54;;;;;;;;;;;;;;;26.93;40.56;101181.06;5056465;28;1048;-39
2022/06/16 01:09:20;;;;;;;;;;;;;;;26.98;40.50;101179.56;5053652;28;953;-39
2022/06/16 01:14:51;;;;;;;;;;;;;;;27.01;40.22;101179.25;5056524;28;1112;-39
2022/06/16 01:17:35;;;;;;;;;;;;;;;26.97;40.26;101175.19;5055605;28;1045;-39
2022/06/16 01:20:09;;;;;;;;;;;;;;;26.99;40.20;101180.41;5055593;28;1902;-39
2022/06/16 01:22:54;;;;;;;;;;;;;;;27.03;39.99;101181.75;5055173;28;1089;-39
2022/06/16 01:25:20;;;;;;;;;;;;;;;27.02;39.98;101186.34;5034353;28;1241;-39
2022/06/16 01:27:51;;;;;;;;;;;;;;;27.02;40.06;101178.25;5056787;28;1191;-39
2022/06/16 01:30:17;;;;;;;;;;;;;;;27.01;40.40;101181.94;5050055;28;966;-38
2022/06/16 01:32:42;;;;;;;;;;;;;;;27.04;40.11;101183.47;5032570;28;962;-39
2022/06/16 01:35:11;;;;;;;;;;;;;;;27.05;39.87;101185.16;5052891;28;1021;-39
2022/06/16 01:37:55;;;;;;;;;;;;;;;27.09;40.13;101182.94;5052050;28;962;-39
2022/06/16 01:40:23;;;;;;;;;;;;;;;27.07;39.96;101182.28;5054036;28;1961;-38
2022/06/16 01:42:53;;;;;;;;;;;;;;;27.08;40.42;101192.03;5037835;28;1243;-39
2022/06/16 01:45:19;;;;;;;;;;;;;;;27.01;40.82;101191.84;5033767;28;1057;-39
2022/06/16 01:47:46;;;;;;;;;;;;;;;27.16;39.96;101183.94;5054456;28;1151;-38
2022/06/16 01:50:13;;;;;;;;;;;;;;;27.23;39.80;101192.19;5037243;28;1250;-38
2022/06/16 01:52:43;;;;;;;;;;;;;;;27.14;40.50;101186.78;5031907;28;897;-39
2022/06/16 01:55:12;;;;;;;;;;;;;;;27.19;39.93;101185.44;5032332;28;1109;-38
2022/06/16 01:57:42;;;;;;;;;;;;;;;27.15;40.22;101184.94;5056233;28;1012;-39
2022/06/16 02:00:08;;;;;;;;;;;;;;;27.18;40.27;101183.75;5038061;28;1991;-38
2022/06/16 02:02:35;;;;;;;;;;;;;;;27.17;39.85;101184.78;5052771;28;1401;-38
2022/06/16 02:05:12;;;;;;;;;;;;;;;27.21;40.29;101186.13;5037954;28;998;-39
2022/06/16 02:07:55;;;;;;;;;;;;;;;27.12;40.47;101191.56;5036504;28;1068;-39
2022/06/16 02:10:23;;;;;;;;;;;;;;;27.20;40.04;101190.69;5054136;28;1239;-39
2022/06/16 02:12:57;;;;;;;;;;;;;;;27.23;40.28;101190.31;5052361;28;1135;-39
2022/06/16 02:15:22;;;;;;;;;;;;;;;27.20;40.11;101192.53;5036879;28;998;-39
2022/06/16 02:17:48;;;;;;;;;;;;;;;27.19;40.45;101196.25;5053035;28;1179;-39
2022/06/16 02:20:13;;;;;;;;;;;;;;;27.18;40.43;101200.81;5053654;28;1957;-38
2022/06/16 02:22:38;;;;;;;;;;;;;;;27.24;40.40;101200.09;5036963;28;1176;-38
2022/06/16 02:25:04;;;;;;;;;;;;;;;27.30;40.06;101203.13;5055605;28;853;-38
2022/06/16 02:27:30;;;;;;;;;;;;;;;27.26;40.41;101197.22;5049360;28;973;-39
2022/06/16 02:29:55;;;;;;;;;;;;;;;27.22;40.41;101199.47;5027057;28;1180;-39
2022/06/16 02:32:26;;;;;;;;;;;;;;;27.20;40.25;101204.19;5051216;28;955;-39
2022/06/16 02:34:58;;;;;;;;;;;;;;;27.37;40.22;101206.84;5047213;28;1179;-38
2022/06/16 02:37:28;;;;;;;;;;;;;;;27.26;40.67;101202.63;5049714;28;1025;-39
2022/06/16 02:39:57;;;;;;;;;;;;;;;27.23;40.70;101205.69;5050336;28;2008;-38
2022/06/16 02:42:34;;;;;;;;;;;;;;;27.29;40.19;101205.00;5055704;28;985;-38
2022/06/16 02:45:03;;;;;;;;;;;;;;;27.34;40.29;101208.00;5053905;28;1203;-38
2022/06/16 02:47:48;;;;;;;;;;;;;;;27.36;40.03;101202.47;5036860;28;1267;-39
2022/06/16 02:50:25;;;;;;;;;;;;;;;27.39;40.05;101199.41;5046882;28;1040;-38
2022/06/16 02:52:53;;;;;;;;;;;;;;;27.31;40.45;101199.44;5044355;28;985;-38
2022/06/16 02:55:18;;;;;;;;;;;;;;;27.45;40.15;101204.09;5028380;28;1180;-39
2022/06/16 02:57:45;;;;;;;;;;;;;;;27.36;40.05;101205.16;5054026;28;1418;-38
2022/06/16 03:00:12;;;;;;;;;;;;;;;27.33;40.44;101200.09;5038746;28;1910;-38
2022/06/16 03:02:38;;;;;;;;;;;;;;;27.31;40.25;101202.13;5058958;28;1506;-39
2022/06/16 03:05:07;;;;;;;;;;;;;;;27.44;39.73;101199.72;5056653;28;1565;-39
2022/06/16 03:07:36;;;;;;;;;;;;;;;27.41;40.08;101199.22;5051801;28;1076;-39
2022/06/16 03:10:02;;;;;;;;;;;;;;;27.37;40.16;101199.59;5059055;28;1135;-38
2022/06/16 03:12:27;;;;;;;;;;;;;;;27.41;40.22;101201.94;5056803;28;1025;-38
2022/06/16 03:14:53;;;;;;;;;;;;;;;27.31;40.39;101211.06;5056677;28;998;-39
2022/06/16 03:17:18;;;;;;;;;;;;;;;27.44;40.03;101209.69;5058249;28;1079;-39
2022/06/16 03:19:44;;;;;;;;;;;;;;;27.29;40.10;101201.47;5057774;28;2000;-39
2022/06/16 03:22:10;;;;;;;;;;;;;;;27.25;40.75;101198.25;5052302;28;991;-38
2022/06/16 03:24:35;;;;;;;;;;;;;;;27.21;40.75;101194.22;5049246;28;1025;-38
2022/06/16 03:27:00;;;;;;;;;;;;;;;27.25;40.00;101207.22;5051751;28;1002;-39
2022/06/16 03:29:25;;;;;;;;;;;;;;;27.36;40.42;101200.59;5056433;28;969;-39
2022/06/16 03:31:52;;;;;;;;;;;;;;;27.37;40.53;101198.72;5056502;28;1040;-39
2022/06/16 03:34:18;;;;;;;;;;;;;;;27.32;40.24;101204.66;5056482;28;1057;-39
2022/06/16 03:36:43;;;;;;;;;;;;;;;27.40;40.29;101203.78;5051331;28;855;-38
2022/06/16 03:39:08;;;;;;;;;;;;;;;27.39;40.49;101197.53;5055223;28;1906;-39
2022/06/16 03:41:34;;;;;;;;;;;;;;;27.54;40.20;101195.97;5055195;28;1145;-39
2022/06/16 03:43:59;;;;;;;;;;;;;;;27.36;39.10;101197.88;5056320;28;1105;-39
2022/06/16 03:46:24;;;;;;;;;;;;;;;26.91;38.63;101194.75;5058627;28;1243;-39
2022/06/16 03:48:50;;;;;;;;;;;;;;;26.49;38.51;101194.75;5057985;28;1173;-39
2022/06/16 03:51:15;;;;;;;;;;;;;;;26.28;39.81;101198.78;5056252;28;1163;-39
2022/06/16 03:53:40;;;;;;;;;;;;;;;26.39;39.50;101191.41;5047669;28;863;-39
2022/06/16 03:56:06;;;;;;;;;;;;;;;26.48;39.30;101200.31;5052618;28;1009;-39
2022/06/16 03:58:31;;;;;;;;;;;;;;;26.15;41.28;101201.97;5053047;28;1096;-35
2022/06/16 04:00:56;;;;;;;;;;;;;;;26.75;40.21;101201.84;5039985;28;1905;-40
2022/06/16 04:06:06;;;;;;;;;;;;;;;26.70;39.55;101192.56;5057611;28;1040;-40
2022/06/16 04:08:31;;;;;;;;;;;;;;;26.74;39.86;101193.94;5055034;28;1246;-40
2022/06/16 04:10:56;;;;;;;;;;;;;;;26.67;39.85;101201.88;5056429;28;1128;-40
2022/06/16 04:13:22;;;;;;;;;;;;;;;26.51;40.07;101206.22;5057169;28;1048;-41
2022/06/16 04:15:47;;;;;;;;;;;;;;;26.49;40.04;101208.25;5057285;28;1227;-40
2022/06/16 04:18:12;;;;;;;;;;;;;;;26.55;40.11;101209.44;5052535;28;942;-41
2022/06/16 04:20:38;;;;;;;;;;;;;;;26.48;40.22;101211.97;5050992;28;1902;-41
2022/06/16 04:23:03;;;;;;;;;;;;;;;26.63;39.77;101209.44;5047659;28;1226;-40
2022/06/16 04:25:32;;;;;;;;;;;;;;;26.64;40.03;101210.31;5053554;28;1018;-41
2022/06/16 04:27:58;;;;;;;;;;;;;;;26.62;39.50;101215.88;5048150;28;1101;-40
2022/06/16 04:30:23;;;;;;;;;;;;;;;26.53;39.73;101206.91;5033492;28;1096;-41
2022/06/16 04:32:49;;;;;;;;;;;;;;;26.61;39.54;101211.47;5055689;28;949;-40
2022/06/16 04:35:14;;;;;;;;;;;;;;;26.62;39.42;101212.31;5056943;28;1088;-41
2022/06/16 04:37:39;;;;;;;;;;;;;;;26.60;39.54;101207.09;5056452;28;1018;-41
2022/06/16 04:40:05;;;;;;;;;;;;;;;26.72;39.01;101204.91;5057067;28;1960;-41
2022/06/16 04:42:30;;;;;;;;;;;;;;;26.80;38.51;101198.66;5057664;28;1017;-41
2022/06/16 04:44:55;;;;;;;;;;;;;;;26.68;39.50;101208.94;5053828;28;1013;-41
2022/06/16 04:47:21;;;;;;;;;;;;;;;26.65;39.74;101199.34;5050266;28;1226;-42
2022/06/16 04:49:48;;;;;;;;;;;;;;;26.64;39.27;101204.91;5051659;28;1052;-40
2022/06/16 04:52:14;;;;;;;;;;;;;;;26.58;39.68;101198.31;5053834;28;1037;-41
2022/06/16 04:54:42;;;;;;;;;;;;;;;26.71;38.99;101205.91;5054073;28;1057;-42
2022/06/16 04:57:08;;;;;;;;;;;;;;;26.79;39.11;101196.97;5051005;28;1219;-41
2022/06/16 04:59:33;;;;;;;;;;;;;;;26.64;39.47;101199.50;5056583;28;1901;-41
2022/06/16 05:01:58;;;;;;;;;;;;;;;26.75;39.42;101199.16;5057162;28;1124;-38
2022/06/16 05:04:23;;;;;;;;;;;;;;;26.81;39.58;101197.63;5056952;28;1096;-39
2022/06/16 05:06:49;;;;;;;;;;;;;;;26.85;39.30;101196.28;5057079;28;993;-37
2022/06/16 05:09:14;;;;;;;;;;;;;;;26.80;39.77;101193.25;5056785;28;973;-41
2022/06/16 05:11:40;;;;;;;;;;;;;;;26.72;39.78;101190.56;5055884;28;985;-41
2022/06/16 05:14:05;;;;;;;;;;;;;;;26.59;39.53;101191.06;5039297;28;1172;-41
2022/06/16 05:16:30;;;;;;;;;;;;;;;26.69;38.59;101186.34;5051609;28;1001;-41
2022/06/16 05:18:56;;;;;;;;;;;;;;;26.64;39.18;101180.63;5054901;28;1898;-36
2022/06/16 05:21:21;;;;;;;;;;;;;;;26.93;38.49;101187.31;5056077;28;1144;-40
2022/06/16 05:23:46;;;;;;;;;;;;;;;26.85;38.72;101185.50;5051589;28;1274;-39
2022/06/16 05:26:12;;;;;;;;;;;;;;;26.87;39.53;101183.47;5056545;28;974;-40
2022/06/16 05:28:37;;;;;;;;;;;;;;;27.06;39.12;101178.72;5056744;28;1116;-40
2022/06/16 05:31:02;;;;;;;;;;;;;;;27.05;38.66;101174.34;5056501;28;1072;-39
2022/06/16 05:33:28;;;;;;;;;;;;;;;26.86;39.51;101183.63;5056166;28;1140;-40
2022/06/16 05:36:00;;;;;;;;;;;;;;;26.85;40.23;101193.59;5054868;28;816;-39
2022/06/16 05:38:26;;;;;;;;;;;;;;;26.94;39.92;101196.28;5056364;28;1053;-40
2022/06/16 05:40:55;;;;;;;;;;;;;;;26.84;40.38;101193.75;5055880;28;1882;-40
2022/06/16 05:43:21;;;;;;;;;;;;;;;26.90;40.51;101188.53;5055973;28;1104;-39
2022/06/16 05:45:46;;;;;;;;;;;;;;;26.87;40.17;101188.00;5056053;28;1092;-40
2022/06/16 05:48:11;;;;;;;;;;;;;;;26.80;40.42;101187.84;5055517;28;1052;-37
2022/06/16 05:50:36;;;;;;;;;;;;;;;26.98;39.86;101189.50;5055750;28;1041;-38
2022/06/16 05:53:02;;;;;;;;;;;;;;;26.96;40.16;101188.84;5038403;28;1061;-41
2022/06/16 05:55:27;;;;;;;;;;;;;;;27.00;39.63;101187.47;5056207;28;998;-40
2022/06/16 05:57:52;;;;;;;;;;;;;;;27.19;38.25;101189.00;5056552;28;1155;-42
2022/06/16 06:00:18;;;;;;;;;;;;;;;27.24;37.03;101196.59;5056023;28;1969;-42
2022/06/16 06:02:43;;;;;;;;;;;;;;;27.24;36.35;101200.09;5055619;28;1144;-41
2022/06/16 06:05:11;;;;;;;;;;;;;;;27.24;36.49;101196.59;5056253;28;998;-39
2022/06/16 06:18:31;;;;;;;;;;;;;;;27.64;35.50;101204.72;5054359;28;1112;-42
2022/06/16 06:20:56;;;;;;;;;;;;;;;27.65;35.17;101201.00;5055477;28;1914;-40
2022/06/16 06:23:22;;;;;;;;;;;;;;;27.69;33.95;101207.78;5055060;28;1172;-39
2022/06/16 06:25:47;;;;;;;;;;;;;;;27.66;33.24;101197.25;5055636;28;966;-39
2022/06/16 06:28:14;;;;;;;;;;;;;;;27.62;32.73;101204.03;5055444;28;1172;-38
2022/06/16 06:30:40;;;;;;;;;;;;;;;27.75;32.96;101198.09;5038048;28;1334;-40
2022/06/16 06:33:05;;;;;;;;;;;;;;;27.77;32.77;101193.38;5058685;28;1127;-38
2022/06/16 06:35:31;;;;;;;;;;;;;;;27.84;33.20;101198.91;5059697;28;1001;-39
2022/06/16 06:37:57;;;;;;;;;;;;;;;27.75;32.96;101188.13;5060172;28;1194;-38
2022/06/16 06:40:27;;;;;;;;;;;;;;;27.72;32.70;101198.47;5058991;28;1963;-40
2022/06/16 06:42:53;;;;;;;;;;;;;;;27.71;33.23;101199.50;5059479;28;1235;-36
2022/06/16 06:45:18;;;;;;;;;;;;;;;27.80;33.29;101202.97;5059888;28;1013;-37
2022/06/16 06:47:43;;;;;;;;;;;;;;;27.78;33.75;101194.22;5058920;28;1216;-35
2022/06/16 06:50:10;;;;;;;;;;;;;;;27.83;34.01;101192.66;5058973;28;1251;-36
2022/06/16 06:52:35;;;;;;;;;;;;;;;27.96;33.30;101192.06;5040704;28;1209;-36
2022/06/16 06:55:00;;;;;;;;;;;;;;;28.03;33.76;101189.50;5058873;28;1271;-36
2022/06/16 06:57:26;;;;;;;;;;;;;;;28.15;33.44;101189.09;5059863;28;1238;-37
2022/06/16 06:59:52;;;;;;;;;;;;;;;28.18;33.63;101184.16;5059715;28;1910;-37
2022/06/16 07:02:17;;;;;;;;;;;;;;;28.13;33.13;101197.38;5059746;28;1251;-36
2022/06/16 07:04:42;;;;;;;;;;;;;;;27.59;34.01;101194.41;5058892;28;1172;-36
2022/06/16 07:07:11;;;;;;;;;;;;;;;27.58;35.03;101195.44;5059344;28;995;-36
2022/06/16 07:09:36;;;;;;;;;;;;;;;27.76;35.20;101197.06;5041763;28;929;-36
2022/06/16 07:12:02;;;;;;;;;;;;;;;27.90;34.88;101192.78;5059035;28;1131;-36
2022/06/16 07:14:29;;;;;;;;;;;;;;;28.03;34.36;101197.59;5059352;28;1215;-36
2022/06/16 07:16:54;;;;;;;;;;;;;;;28.11;34.63;101202.97;5055361;28;1061;-37
2022/06/16 07:19:20;;;;;;;;;;;;;;;27.85;35.49;101203.28;5058922;28;1870;-38
2022/06/16 07:21:45;;;;;;;;;;;;;;;28.18;34.45;101203.09;5058571;28;1049;-37
2022/06/16 07:24:10;;;;;;;;;;;;;;;28.43;33.67;101199.38;5057717;28;1018;-37
2022/06/16 07:26:36;;;;;;;;;;;;;;;28.14;34.11;101206.34;5058417;28;767;-36
2022/06/16 07:29:01;;;;;;;;;;;;;;;28.34;33.53;101201.34;5058761;28;1224;-37
2022/06/16 07:31:27;;;;;;;;;;;;;;;28.33;33.78;101203.19;5058200;28;873;-37
2022/06/16 07:33:52;;;;;;;;;;;;;;;28.33;33.48;101205.03;5059038;28;814;-37
2022/06/16 07:36:18;;;;;;;;;;;;;;;28.44;31.74;101210.06;5057924;28;1227;-37
2022/06/16 07:38:43;;;;;;;;;;;;;;;28.35;31.85;101211.97;5058260;28;779;-37
2022/06/16 07:43:53;;;;;;;;;;;;;;;28.35;31.37;101216.53;5057942;28;934;-38
2022/06/16 07:46:19;;;;;;;;;;;;;;;28.41;31.88;101213.09;5058338;28;869;-37
2022/06/16 07:48:44;;;;;;;;;;;;;;;28.50;30.97;101218.44;5059027;28;1262;-36
2022/06/16 07:51:09;;;;;;;;;;;;;;;28.56;30.65;101221.28;5057761;28;967;-37
2022/06/16 07:53:35;;;;;;;;;;;;;;;28.58;31.01;101219.22;5058503;28;1180;-37
2022/06/16 07:56:01;;;;;;;;;;;;;;;28.57;30.89;101214.00;5058344;28;1112;-36
2022/06/16 07:58:31;;;;;;;;;;;;;;;28.76;30.27;101222.66;5040004;28;861;-36
2022/06/16 08:00:56;;;;;;;;;;;;;;;28.71;31.16;101223.22;5058541;28;1918;-38
2022/06/16 08:03:26;;;;;;;;;;;;;;;28.69;31.16;101225.25;5055714;28;1164;-37
2022/06/16 08:05:51;;;;;;;;;;;;;;;28.69;31.28;101227.97;5058019;28;1224;-36
2022/06/16 08:08:17;;;;;;;;;;;;;;;28.73;29.80;101231.97;5057567;28;1121;-37
2022/06/16 08:10:42;;;;;;;;;;;;;;;28.73;30.10;101234.66;5057326;28;1246;-35
2022/06/16 08:13:08;;;;;;;;;;;;;;;28.72;30.14;101231.16;5058138;28;778;-36
2022/06/16 08:15:33;;;;;;;;;;;;;;;28.78;30.35;101229.56;5056914;28;1701;-34
2022/06/16 08:17:58;;;;;;;;;;;;;;;28.87;30.10;101235.75;5057690;28;989;-36
2022/06/16 08:20:24;;;;;;;;;;;;;;;28.70;30.45;101229.63;5057646;28;1898;-36
2022/06/16 08:22:49;;;;;;;;;;;;;;;28.81;30.59;101234.59;5057516;28;1004;-36
2022/06/16 08:25:17;;;;;;;;;;;;;;;28.77;30.41;101235.16;5056887;28;1094;-36
2022/06/16 08:27:42;;;;;;;;;;;;;;;28.64;30.99;101236.63;5057995;28;981;-36
2022/06/16 08:30:09;;;;;;;;;;;;;;;28.74;30.96;101233.66;5057144;28;1152;-37
2022/06/16 08:32:34;;;;;;;;;;;;;;;28.72;28.98;101235.72;5057124;28;1026;-37
2022/06/16 08:34:59;;;;;;;;;;;;;;;28.73;27.53;101224.69;5056060;28;880;-36
2022/06/16 08:37:25;;;;;;;;;;;;;;;28.79;26.72;101225.00;5056202;28;1112;-37
2022/06/16 08:39:50;;;;;;;;;;;;;;;28.72;26.47;101219.47;5057154;28;1910;-36
2022/06/16 08:42:20;;;;;;;;;;;;;;;28.74;27.16;101228.25;5057097;28;1013;-36
2022/06/16 08:44:49;;;;;;;;;;;;;;;28.67;27.48;101221.88;5038637;28;1005;-36
2022/06/16 08:47:19;;;;;;;;;;;;;;;28.59;27.74;101222.78;5038833;28;1271;-36
2022/06/16 08:49:56;;;;;;;;;;;;;;;28.68;28.23;101228.97;5038690;28;1200;-36
2022/06/16 08:52:28;;;;;;;;;;;;;;;28.65;27.88;101224.75;5056537;28;1024;-37
2022/06/16 08:54:56;;;;;;;;;;;;;;;28.70;27.67;101221.50;5038816;28;1179;-37
2022/06/16 08:57:35;;;;;;;;;;;;;;;28.66;28.15;101223.72;5057246;28;1077;-37
2022/06/16 09:00:02;;;;;;;;;;;;;;;28.63;28.12;101226.81;5037906;28;1989;-36
2022/06/16 09:02:34;;;;;;;;;;;;;;;28.68;27.76;101224.41;5056863;28;958;-36
2022/06/16 09:05:05;;;;;;;;;;;;;;;28.67;27.97;101216.47;5056402;28;1020;-37
2022/06/16 09:07:45;;;;;;;;;;;;;;;28.68;27.93;101221.69;5034577;28;1010;-37
2022/06/16 09:10:23;;;;;;;;;;;;;;;28.71;28.50;101220.50;5021012;28;1150;-36
2022/06/16 09:12:57;;;;;;;;;;;;;;;28.69;28.87;101223.38;5053087;28;942;-36
2022/06/16 09:15:32;;;;;;;;;;;;;;;28.72;28.91;101222.16;5054107;28;1147;-36
2022/06/16 09:18:07;;;;;;;;;;;;;;;28.73;29.02;101216.56;5055106;28;1250;-36
2022/06/16 09:20:44;;;;;;;;;;;;;;;28.70;29.21;101221.50;5054823;28;1898;-36
2022/06/16 09:23:28;;;;;;;;;;;;;;;28.70;29.34;101221.50;5031589;28;1177;-36
2022/06/16 09:26:12;;;;;;;;;;;;;;;28.71;29.64;101226.72;5054189;28;911;-36
2022/06/16 09:28:47;;;;;;;;;;;;;;;28.73;29.50;101230.09;5039258;28;1019;-36
2022/06/16 09:31:14;;;;;;;;;;;;;;;28.75;29.62;101226.38;5038119;28;1037;-35
2022/06/16 09:33:42;;;;;;;;;;;;;;;28.83;29.51;101213.59;5038584;28;1045;-35
2022/06/16 09:36:12;;;;;;;;;;;;;;;28.82;29.46;101230.88;5055832;28;1037;-35
2022/06/16 09:38:56;;;;;;;;;;;;;;;28.84;29.72;101219.88;5038471;28;871;-36
2022/06/16 09:44:13;;;;;;;;;;;;;;;28.28;31.65;101213.69;5053982;28;946;-38
2022/06/16 09:46:40;;;;;;;;;;;;;;;28.23;31.65;101216.94;5037806;28;1073;-38
2022/06/16 09:49:09;;;;;;;;;;;;;;;28.13;32.62;101212.78;5038144;28;1299;-35
2022/06/16 09:51:37;;;;;;;;;;;;;;;28.19;31.13;101209.34;5053879;28;1006;-35
2022/06/16 09:54:05;;;;;;;;;;;;;;;28.14;31.44;101209.03;5056020;28;970;-36
2022/06/16 09:56:42;;;;;;;;;;;;;;;28.46;30.47;101209.88;5056009;28;962;-36
2022/06/16 09:59:08;;;;;;;;;;;;;;;28.59;29.73;101211.97;5055734;28;1963;-36
2022/06/16 10:01:36;;;;;;;;;;;;;;;28.82;29.08;101213.78;5055890;28;998;-36
2022/06/16 10:04:03;;;;;;;;;;;;;;;28.88;28.57;101213.06;5038013;28;923;-36
2022/06/16 10:06:40;;;;;;;;;;;;;;;28.79;28.48;101211.47;5053763;28;1032;-35
2022/06/16 10:09:22;;;;;;;;;;;;;;;28.83;28.65;101210.03;5024794;28;1166;-36
2022/06/16 10:11:56;;;;;;;;;;;;;;;28.89;27.71;101214.75;5028380;28;989;-36
2022/06/16 10:14:25;;;;;;;;;;;;;;;28.72;29.38;101211.34;5055099;28;1021;-36
2022/06/16 10:16:55;;;;;;;;;;;;;;;28.84;29.28;101217.97;5055122;28;849;-32
2022/06/16 10:19:21;;;;;;;;;;;;;;;28.99;28.75;101208.25;5052827;28;1890;-37
2022/06/16 10:21:46;;;;;;;;;;;;;;;28.96;28.72;101214.84;5037570;28;816;-37
2022/06/16 10:24:12;;;;;;;;;;;;;;;29.03;28.84;101209.56;5037838;28;1116;-37
2022/06/16 10:26:37;;;;;;;;;;;;;;;29.09;28.86;101208.84;5037754;28;1049;-36
2022/06/16 10:29:07;;;;;;;;;;;;;;;29.23;28.46;101201.72;5054509;28;1308;-34
2022/06/16 10:31:37;;;;;;;;;;;;;;;29.21;28.47;101206.50;5055492;28;1072;-37
2022/06/16 10:34:03;;;;;;;;;;;;;;;29.06;28.77;101206.50;5055506;28;1249;-36
2022/06/16 10:36:28;;;;;;;;;;;;;;;28.77;29.33;101205.38;5039435;28;1124;-36
2022/06/16 10:39:29;;;;;;;;;;;;;;;28.81;29.03;101201.28;5055735;28;977;-35
2022/06/16 10:41:54;;;;;;;;;;;;;;;28.92;29.47;101205.41;4969508;28;1182;-35
2022/06/16 10:44:20;;;;;;;;;;;;;;;29.02;29.40;101202.47;5035307;28;1056;-35
2022/06/16 10:46:59;;;;;;;;;;;;;;;29.24;29.01;101203.41;5037763;28;1414;-35
2022/06/16 10:49:29;;;;;;;;;;;;;;;29.21;29.01;101203.81;5038070;28;1098;-35
2022/06/16 10:51:56;;;;;;;;;;;;;;;29.04;29.14;101189.59;5035329;28;1156;-35
2022/06/16 10:54:35;;;;;;;;;;;;;;;28.66;30.01;101190.44;5036495;28;871;-35
2022/06/16 10:57:22;;;;;;;;;;;;;;;28.55;30.25;101192.53;5050521;28;1108;-35
2022/06/16 10:59:51;;;;;;;;;;;;;;;28.47;31.49;101185.34;5050879;28;1914;-35
2022/06/16 11:02:22;;;;;;;;;;;;;;;28.43;30.94;101191.28;5052081;28;1124;-36
2022/06/16 11:04:51;;;;;;;;;;;;;;;28.32;30.33;101185.25;5053930;28;986;-35
2022/06/16 11:07:18;;;;;;;;;;;;;;;28.18;30.38;101184.16;5030235;28;1176;-35
2022/06/16 11:09:43;;;;;;;;;;;;;;;28.47;29.42;101184.50;5053607;28;1028;-35
2022/06/16 11:12:19;;;;;;;;;;;;;;;28.75;28.72;101181.19;5033272;28;1080;-35
2022/06/16 11:14:59;;;;;;;;;;;;;;;29.01;28.01;101184.53;5019753;28;1037;-35
2022/06/16 11:17:25;;;;;;;;;;;;;;;29.05;28.07;101192.09;5033720;28;1141;-35
2022/06/16 11:19:51;;;;;;;;;;;;;;;29.14;28.16;101179.31;5039909;28;1905;-35
2022/06/16 11:22:18;;;;;;;;;;;;;;;29.15;27.74;101180.13;5055986;28;1210;-35
2022/06/16 11:25:13;;;;;;;;;;;;;;;29.06;28.70;101179.41;5040688;28;1160;-35
2022/06/16 11:27:48;;;;;;;;;;;;;;;29.05;28.53;101183.13;5038625;28;1312;-35
2022/06/16 11:30:30;;;;;;;;;;;;;;;29.13;28.66;101183.03;5055935;28;1123;-36
2022/06/16 11:32:55;;;;;;;;;;;;;;;29.34;28.63;101192.31;5053267;28;938;-36
2022/06/16 11:35:21;;;;;;;;;;;;;;;29.43;28.36;101191.16;5056757;28;1191;-35
2022/06/16 11:37:52;;;;;;;;;;;;;;;29.49;28.71;101180.59;5051047;28;1539;-35
2022/06/16 11:40:17;;;;;;;;;;;;;;;29.52;29.13;101172.94;5058132;28;1895;-35
2022/06/16 11:43:01;;;;;;;;;;;;;;;29.55;29.08;101182.53;5056388;28;1064;-36
2022/06/16 11:45:39;;;;;;;;;;;;;;;29.12;29.28;101104.66;5054104;28;1480;-36
2022/06/16 11:48:07;;;;;;;;;;;;;;;29.53;29.48;101176.50;5057411;28;1013;-36
2022/06/16 11:50:35;;;;;;;;;;;;;;;29.51;28.53;101178.53;5057716;28;1069;-34
2022/06/16 11:53:01;;;;;;;;;;;;;;;28.63;27.43;101164.53;5054046;28;982;-35
2022/06/16 11:55:29;;;;;;;;;;;;;;;29.19;27.93;101165.22;5038365;28;1558;-34
2022/06/16 11:57:57;;;;;;;;;;;;;;;29.31;28.57;101165.59;5054527;28;1537;-34
2022/06/16 12:00:28;;;;;;;;;;;;;;;29.02;27.43;101172.66;5058226;28;1969;-34
2022/06/16 12:02:53;;;;;;;;;;;;;;;29.11;26.98;101162.59;5040603;28;1062;-35
2022/06/16 12:05:28;;;;;;;;;;;;;;;29.40;26.98;101156.31;5057010;28;2060;-37
2022/06/16 12:08:08;;;;;;;;;;;;;;;29.39;26.65;101167.34;5055040;28;2231;-36
2022/06/16 12:10:52;;;;;;;;;;;;;;;29.22;26.85;101162.13;5055766;28;2566;-36
2022/06/16 12:13:21;;;;;;;;;;;;;;;29.20;26.43;101161.47;5056684;28;2158;-36
2022/06/16 12:15:52;;;;;;;;;;;;;;;29.01;26.29;101160.16;5040508;28;2168;-35
2022/06/16 12:18:20;;;;;;;;;;;;;;;29.18;25.69;101156.22;5057157;28;1864;-34
2022/06/16 12:20:53;;;;;;;;;;;;;;;29.66;26.39;101149.56;5052918;28;2394;-36
2022/06/16 12:23:21;;;;;;;;;;;;;;;29.94;26.79;101153.41;5037059;28;2027;-35
2022/06/16 12:25:52;;;;;;;;;;;;;;;29.94;27.16;101148.84;5055547;28;1778;-33
2022/06/16 12:28:26;;;;;;;;;;;;;;;30.13;27.15;101154.63;5057535;28;1235;-35
2022/06/16 12:30:57;;;;;;;;;;;;;;;30.04;27.33;101142.25;5038247;28;1578;-38
2022/06/16 12:33:22;;;;;;;;;;;;;;;29.98;27.56;101145.75;5055644;28;1490;-38
2022/06/16 12:35:50;;;;;;;;;;;;;;;29.95;27.86;101155.09;5056509;28;2250;-38
2022/06/16 12:38:15;;;;;;;;;;;;;;;30.15;27.96;101149.88;5055796;28;1935;-37
2022/06/16 12:40:41;;;;;;;;;;;;;;;30.12;27.47;101150.25;5049180;28;2078;-34
2022/06/16 12:43:08;;;;;;;;;;;;;;;30.08;27.85;101153.56;5021610;28;2040;-35
2022/06/16 12:45:57;;;;;;;;;;;;;;;29.90;28.19;101157.53;5039907;28;2157;-33
2022/06/16 12:48:23;;;;;;;;;;;;;;;29.93;27.05;101152.56;5045241;28;2090;-34
2022/06/16 12:50:50;;;;;;;;;;;;;;;30.07;26.96;101136.44;5056832;28;2017;-38
2022/06/16 12:53:21;;;;;;;;;;;;;;;29.81;27.95;101145.97;5031379;28;2223;-38
2022/06/16 12:55:51;;;;;;;;;;;;;;;29.50;27.82;101145.16;5036288;28;2255;-38
2022/06/16 12:58:19;;;;;;;;;;;;;;;29.22;26.58;101137.75;5036208;28;2086;-38
2022/06/16 13:00:48;;;;;;;;;;;;;;;29.67;25.79;101134.13;5054422;28;2288;-38
2022/06/16 13:03:17;;;;;;;;;;;;;;;29.46;25.83;101139.28;5053582;28;2266;-37
2022/06/16 13:05:42;;;;;;;;;;;;;;;29.41;26.93;101132.78;5038225;28;2255;-37
2022/06/16 13:08:07;;;;;;;;;;;;;;;29.72;26.37;101134.41;5054380;28;1946;-37
2022/06/16 13:10:33;;;;;;;;;;;;;;;29.78;26.54;101132.81;5038160;28;2189;-36
2022/06/16 13:12:58;;;;;;;;;;;;;;;29.26;26.57;101132.78;5055460;28;1975;-35
2022/06/16 13:15:30;;;;;;;;;;;;;;;28.90;26.56;101135.19;5056257;28;2027;-36
2022/06/16 13:17:58;;;;;;;;;;;;;;;29.57;27.11;101129.84;5056725;28;1839;-35